This is the latest recevied weather packets stored in our database for station/object HS5GDX-4. If no packets are shown the sender has not sent any weather packets the latest 1 day(s).
| Time | Temp. | Humidity | Pressure | Rain* | Wind** | Luminosity | Snow |
|---|---|---|---|---|---|---|---|
| 1778095392 | 32.78° C | 49% | 965 hPa | - | - | 0 W/m² | - |
| 1778094463 | 33.89° C | 47% | 965 hPa | - | - | 0 W/m² | - |
| 1778092602 | 33.33° C | 51% | 965 hPa | - | - | 0 W/m² | - |
| 1778091674 | 33.89° C | 45% | 965 hPa | - | - | 0 W/m² | - |
| 1778087959 | 33.33° C | 48% | 966 hPa | - | - | 0 W/m² | - |
| 1778087032 | 33.33° C | 47% | 966 hPa | - | - | 0 W/m² | - |
| 1778086103 | 33.89° C | 47% | 966 hPa | - | - | 0 W/m² | - |
| 1778084246 | 33.89° C | 45% | 966 hPa | - | - | 0 W/m² | - |
| 1778081459 | 33.33° C | 47% | 966 hPa | - | - | 0 W/m² | - |
| 1778078673 | 34.44° C | 45% | 966 hPa | - | - | 0 W/m² | - |
| 1778076815 | 34.44° C | 45% | 965 hPa | - | - | 0 W/m² | - |
| 1778075887 | 33.89° C | 49% | 965 hPa | - | - | 0 W/m² | - |
| 1778074959 | 33.89° C | 49% | 964 hPa | - | - | 0 W/m² | - |
| 1778071244 | 34.44° C | 48% | 964 hPa | - | - | 0 W/m² | - |
| 1778069387 | 35° C | 48% | 963 hPa | - | - | 0 W/m² | - |
| 1778066601 | 36.11° C | 46% | 962 hPa | - | - | 0 W/m² | - |
| 1778065673 | 36.67° C | 44% | 962 hPa | - | - | 0 W/m² | - |
| 1778064744 | 37.22° C | 43% | 962 hPa | - | - | 0 W/m² | - |
| 1778062885 | 37.22° C | 43% | 962 hPa | - | - | 0 W/m² | - |
| 1778060100 | 36.67° C | 44% | 962 hPa | - | - | 0 W/m² | - |
| 1778059172 | 36.67° C | 45% | 962 hPa | - | - | 0 W/m² | - |
| 1778057316 | 35° C | 47% | 963 hPa | - | - | 0 W/m² | - |
| 1778056387 | 36.11° C | 45% | 963 hPa | - | - | 0 W/m² | - |
| 1778055459 | 35° C | 48% | 963 hPa | - | - | 0 W/m² | - |
| 1778054530 | 35.56° C | 47% | 963 hPa | - | - | 0 W/m² | - |
* Rain since midnight (hover to see other rain measurements)
** Current wind speed in m/s (hover to see current wind gust speed)